Detall de PIREP

Printer-friendly versionPDF version

[2014/04/21 07:43:00]
Flight IATA:CT0001
Pilot Number:041
Company ICAO:CAT
Aircraft Type:F50/A
PAX:39
Aircraft Registration:PAOB
Departing Airport: LELC
Destination Airport: LEGE
Alternate Airport:LEBL
Online: VATSIM
Route:ALT B46 MITOS N608 SOPET B28 EBROX DCT LATRO H110 MAMUK
Flight Level:FL140
No Slew and time accel
No pause
Crash detect
Detect pilot in Cockpit between each 30 and 45 minutes
07:43 Zero fuel Weight: 35103 Lbs, Fuel Weight: 8955 Lbs
07:43 VATSIM:LELC 210700Z 22014KT 180V260 9999 FEW025 18/13 Q1004 NOSIG
07:43 VATSIM:LEGE 210730Z 00000KT 6000 -RA VCFG FEW002 BKN013 BKN019 11/11 Q1004
07:43 VOICE CATALONIAN
07:54 Parking Brakes off
08:00 Take-off
08:00 Take off Weight: 43957 Lbs
08:00 Wind: 223º @ 014 Knots Heading: 224º
08:00 POS N37º 46´ 19´´ W000º 48´ 55´´
08:00 Flaps:2 at 127 Knots
08:00 Gear Up: 128 Knots
08:00 Flaps:1 at 149 Knots
08:00 Flaps:0 at 153 Knots
08:13 TOC
08:13 Fuel Weight: 8350 Lb
08:15 Wind:274º@041 Knots Heading: 063º Ground Speed: 284 Knots Altitude 13733 ft
08:30 Wind:280º@041 Knots Heading: 351º Ground Speed: 243 Knots Altitude 13710 ft
08:45 Wind:270º@041 Knots Heading: 040º Ground Speed: 290 Knots Altitude 13681 ft
09:00 Wind:336º@041 Knots Heading: 009º Ground Speed: 229 Knots Altitude 13684 ft
09:09 TOD
09:09 Fuel Weight: 6482 Lb
09:15 Wind:352º@023 Knots Heading: 073º Ground Speed: 237 Knots Altitude 7801 ft
09:24 Flaps:1 at 152 Knots
09:25 Flaps:2 at 150 Knots
09:26 Flaps:3 at 152 Knots
09:26 Gear Down: 149 Knots
09:27 Flaps:4 at 131 Knots
09:27 Flaps:5 at 116 Knots
09:28 Flaps:6 at 114 Knots
09:29 TouchDown:Rate -83 ft/min Speed: 103 Knots
09:29 VATSIM:LEGE 210900Z VRB02KT 9000 VCFG FEW002 SCT013 BKN020 12/12 Q1005
09:29 Land
09:29 Wind:356º@003 Knots
09:29 Heading: 015º
09:29 Flight Duration: 01:29
09:29 Landing Weight: 41225 Lbs
09:29 POS N41º 54´ 19´´ E002º 45´ 44´´
09:34 Parking brakes on
09:34 Block to Block Duration: 01:40
09:34 Final Fuel: 6078 Lbls
09:34 Spent Fuel: 2876 Lbls
09:34 Flight Length: 366 NM
09:34 TOD Land Length: 70 NM

Exportar CSV

Powered by Drupal - Modified by Danger4k